»·PEaware :: N8833D KOMN-KTPA

N8833D :: KOMN-KTPA

FLIGHT INFORMATION

Flight Status: Arrived
Operator: Privately registered:
United States
More flights under this callsign
Pilot: Cooper L. (8467)
Aircraft: ECLIPSE 500
(EA50)
More flights by this aircraft type
Origin: KOMN Ormond Beach Mun
United States
Destination: KTPA Tampa Intl
United States
More flights between these airports :: More routes between these airports
Route: OMN V3 MALET AR6 ORL DADES4
File this flight plan on PilotEdge
Remarks:
Altitude:
(Current/Filed)
10,000ft
Speed:
(Current/Filed)
350kts
Departed: 04-Apr-17 06:39 PM
Arrived: 04-Apr-17 07:14 PM
Distance/Time
Traveled:
109nm/0:35
Distance/Time
To Go:
Arrived

Flight Plot

Page will automatically refresh every two minutes.

Flight plan parsing failed; only flown route is shown


Map Options




Map Legend


Flown Route
Filed Route
Departure Airport
Arrival Airport
Navaid (VOR, NDB)
Fix

Horizontal Profiles

Position Reports

Time Latitude Longitude Heading Altitude Ground
Speed
04-Apr-17 18:22 29.299863 -81.110285 217 31ft 0kts
04-Apr-17 18:23 29.299863 -81.110285 217 31ft 0kts
04-Apr-17 18:24 29.299863 -81.110285 217 31ft 0kts
04-Apr-17 18:25 29.299863 -81.110285 217 31ft 0kts
04-Apr-17 18:26 29.299863 -81.110285 217 31ft 0kts
04-Apr-17 18:27 29.299863 -81.110285 217 31ft 0kts
04-Apr-17 18:28 29.299863 -81.110285 217 31ft 0kts
04-Apr-17 18:29 29.299863 -81.110285 217 31ft 0kts
04-Apr-17 18:30 29.299863 -81.110285 217 31ft 0kts
04-Apr-17 18:31 29.299863 -81.110285 217 31ft 0kts
04-Apr-17 18:32 29.299863 -81.110285 217 31ft 0kts
04-Apr-17 18:33 29.299860 -81.110289 217 31ft 0kts
04-Apr-17 18:34 29.300065 -81.110790 323 31ft 11kts
04-Apr-17 18:35 29.302763 -81.108727 349 31ft 1kts
04-Apr-17 18:36 29.304247 -81.111540 295 31ft 4kts
04-Apr-17 18:37 29.304247 -81.111540 295 31ft 4kts
04-Apr-17 18:38 29.304676 -81.112574 297 31ft 19kts
04-Apr-17 18:39 29.304814 -81.114550 168 31ft 5kts
04-Apr-17 18:40 29.273948 -81.102796 158 990ft 195kts
04-Apr-17 18:41 29.225161 -81.080455 162 3502ft 193kts
04-Apr-17 18:42 29.171868 -81.059560 161 5934ft 216kts
04-Apr-17 18:43 29.114386 -81.036616 162 8608ft 229kts
04-Apr-17 18:44 29.049559 -81.010675 162 9985ft 284kts
04-Apr-17 18:45 28.970947 -80.979134 162 10567ft 293kts
04-Apr-17 18:46 28.904073 -80.952350 162 10540ft 261kts
04-Apr-17 18:47 28.836533 -80.925382 162 10609ft 295kts
04-Apr-17 18:48 28.757727 -80.893880 162 11465ft 307kts
04-Apr-17 18:49 28.682054 -80.905517 239 11977ft 309kts
04-Apr-17 18:50 28.650840 -80.997117 248 11986ft 308kts
04-Apr-17 18:51 28.621372 -81.089544 248 12011ft 313kts
04-Apr-17 18:52 28.591721 -81.182256 247 12011ft 313kts
04-Apr-17 18:53 28.580141 -81.218412 247 12012ft 312kts
04-Apr-17 18:54 28.550857 -81.309712 247 12048ft 307kts
04-Apr-17 18:55 28.530099 -81.400789 255 12322ft 304kts
04-Apr-17 18:56 28.511822 -81.495023 255 12011ft 312kts
04-Apr-17 18:57 28.493239 -81.590665 255 12010ft 312kts
04-Apr-17 18:58 28.474493 -81.686744 255 12012ft 312kts
04-Apr-17 18:59 28.455715 -81.782621 255 12012ft 312kts
04-Apr-17 19:00 28.436817 -81.878724 255 12011ft 312kts
04-Apr-17 19:01 28.417844 -81.974830 255 12011ft 312kts
04-Apr-17 19:02 28.398848 -82.070678 255 12012ft 312kts
04-Apr-17 19:03 28.379776 -82.166539 255 12038ft 311kts
04-Apr-17 19:04 28.353585 -82.258662 222 12029ft 306kts
04-Apr-17 19:05 28.289357 -82.321736 219 12037ft 306kts
04-Apr-17 19:06 28.224803 -82.383575 219 12037ft 306kts
04-Apr-17 19:07 28.147375 -82.410837 183 12027ft 283kts
04-Apr-17 19:08 28.069533 -82.413385 182 9860ft 276kts
04-Apr-17 19:09 27.995281 -82.415356 181 6496ft 265kts
04-Apr-17 19:10 27.923862 -82.417128 181 3639ft 257kts
04-Apr-17 19:11 27.882172 -82.470317 277 2431ft 242kts
04-Apr-17 19:12 27.899637 -82.506058 308 1527ft 233kts
04-Apr-17 19:13 27.944909 -82.539579 286 697ft 166kts
04-Apr-17 19:14 27.967621 -82.553559 49 348ft 119kts
04-Apr-17 19:15 27.970527 -82.525812 91 29ft 19kts
04-Apr-17 19:16 27.969041 -82.522942 150 29ft 10kts
04-Apr-17 19:27 27.968647 -82.522751 163 29ft 0kts

Navigation Log

Ident Type
Flight plan parsing failed, navigation log unavailable